Terminal Aerodrome Forecast
Issued by NWS Amarillo, TX

Home | Current Version | Previous Version | Text Only | Print | Product List | Glossary On
Versions: 1 2 3 4 5 6 7 8 9 10 11 12 13
000
FTUS44 KAMA 031100
TAFDHT
TAF
KDHT 031120Z 0312/0412 25010KT P6SM SCT110 OVC300
     FM031800 21015G23KT P6SM SCT100 SCT300
     FM040000 16013KT P6SM BKN080 OVC300
     FM040700 19010KT P6SM BKN100=

USA.gov is the U.S. government's official web portal to all federal, state and local government web resources and services.